Time;durP1;ratioP1;P1;durP2;ratioP2;P2;SDS_P1;SDS_P2;PMS_P1;PMS_P2;Temp;Humidity;BMP_temperature;BMP_pressure;BME280_temperature;BME280_humidity;BME280_pressure;Samples;Min_cycle;Max_cycle;Signal;HPM_P1;HPM_P2
2021/08/13 00:00:29;;;;;;;14.20;10.45;;;17.20;94.90;;;;;;4968969;28;20507;-51
2021/08/13 00:02:55;;;;;;;12.70;9.68;;;17.20;94.90;;;;;;4975027;28;20157;-53
2021/08/13 00:05:21;;;;;;;9.80;7.55;;;17.10;94.90;;;;;;4953819;28;20118;-49
2021/08/13 00:07:47;;;;;;;12.18;8.75;;;17.10;94.90;;;;;;4941628;28;20190;-55
2021/08/13 00:10:13;;;;;;;12.43;9.85;;;17.00;95.00;;;;;;4957638;28;20046;-52
2021/08/13 00:12:39;;;;;;;15.10;10.65;;;17.00;95.00;;;;;;4961014;28;20069;-53
2021/08/13 00:15:05;;;;;;;12.45;9.77;;;17.00;95.20;;;;;;4970875;28;20069;-54
2021/08/13 00:17:34;;;;;;;14.38;11.07;;;17.00;95.20;;;;;;4949013;29;20073;-56
2021/08/13 00:20:05;;;;;;;12.25;9.48;;;17.00;95.30;;;;;;4937805;28;20051;-56
2021/08/13 00:22:30;;;;;;;13.10;10.43;;;17.00;95.30;;;;;;4962523;28;20496;-52
2021/08/13 00:24:56;;;;;;;16.98;12.00;;;17.00;95.20;;;;;;4960688;28;20149;-54
2021/08/13 00:27:22;;;;;;;15.55;12.00;;;17.00;95.40;;;;;;4973962;28;20050;-49
2021/08/13 00:29:47;;;;;;;17.88;13.07;;;16.90;95.40;;;;;;4974004;28;20070;-49
2021/08/13 00:32:14;;;;;;;16.65;13.23;;;16.90;95.40;;;;;;4943393;28;20377;-51
2021/08/13 00:34:39;;;;;;;18.05;13.27;;;16.90;95.50;;;;;;4972632;28;20043;-51
2021/08/13 00:37:06;;;;;;;21.67;15.07;;;16.90;95.60;;;;;;4945887;28;20046;-49
2021/08/13 00:39:31;;;;;;;18.73;14.50;;;16.90;95.70;;;;;;4971925;28;20618;-51
2021/08/13 00:41:57;;;;;;;18.35;14.32;;;16.90;95.70;;;;;;4946701;28;20462;-53
2021/08/13 00:44:23;;;;;;;22.80;15.85;;;16.90;95.90;;;;;;4973496;28;20050;-52
2021/08/13 00:46:49;;;;;;;21.83;17.30;;;16.90;95.90;;;;;;4955910;28;20499;-50
2021/08/13 00:49:16;;;;;;;21.80;15.85;;;16.90;96.00;;;;;;4973912;28;20097;-53
2021/08/13 00:51:44;;;;;;;21.38;14.95;;;16.90;96.00;;;;;;4923068;28;20070;-51
2021/08/13 00:54:09;;;;;;;8.25;6.30;;;16.80;96.00;;;;;;4982432;28;20074;-51
2021/08/13 00:56:35;;;;;;;8.07;4.63;;;16.90;95.90;;;;;;4971985;28;20046;-55
2021/08/13 00:59:03;;;;;;;7.78;6.43;;;16.80;95.30;;;;;;4970829;28;20043;-53
2021/08/13 01:01:29;;;;;;;8.13;6.35;;;16.60;95.00;;;;;;4967920;28;20514;-51
2021/08/13 01:03:56;;;;;;;13.90;8.55;;;16.50;95.20;;;;;;4964420;28;20074;-54
2021/08/13 01:06:23;;;;;;;17.73;11.50;;;16.40;95.20;;;;;;4953752;28;20046;-51
2021/08/13 01:08:48;;;;;;;16.80;12.70;;;16.30;95.50;;;;;;4955248;28;20035;-50
2021/08/13 01:11:39;;;;;;;17.77;13.30;;;16.30;95.60;;;;;;4962530;28;20108;-52
2021/08/13 01:14:23;;;;;;;19.70;14.43;;;16.30;95.90;;;;;;4955236;28;20043;-55
2021/08/13 01:16:53;;;;;;;16.92;13.43;;;16.30;96.00;;;;;;4961747;28;20121;-54
2021/08/13 01:19:40;;;;;;;19.55;14.60;;;16.40;96.00;;;;;;4955221;28;20400;-53
2021/08/13 01:22:22;;;;;;;20.73;14.35;;;16.40;96.10;;;;;;4954930;28;20046;-52
2021/08/13 01:24:49;;;;;;;17.98;13.27;;;16.40;96.10;;;;;;4952851;28;20125;-55
2021/08/13 01:27:20;;;;;;;11.57;9.40;;;16.40;96.10;;;;;;4974938;28;20050;-55
2021/08/13 01:30:09;;;;;;;13.20;8.43;;;16.40;96.00;;;;;;4962023;28;20043;-55
2021/08/13 01:32:57;;;;;;;9.77;6.75;;;16.40;95.80;;;;;;4963948;28;20055;-55
2021/08/13 01:35:28;;;;;;;11.55;9.20;;;16.40;95.60;;;;;;4973789;28;20098;-54
2021/08/13 01:38:01;;;;;;;12.85;9.90;;;16.30;95.50;;;;;;4969061;28;20070;-55
2021/08/13 01:40:28;;;;;;;15.15;10.95;;;16.30;95.40;;;;;;4972276;28;20065;-55
2021/08/13 01:42:57;;;;;;;15.38;11.07;;;16.20;95.40;;;;;;4985415;28;20039;-53
2021/08/13 01:45:27;;;;;;;15.77;11.10;;;16.20;95.50;;;;;;4965051;28;20464;-54
2021/08/13 01:47:55;;;;;;;15.68;11.80;;;16.20;95.60;;;;;;4966227;28;20484;-55
2021/08/13 01:50:21;;;;;;;15.85;11.27;;;16.20;95.80;;;;;;4942272;28;20167;-54
2021/08/13 01:52:52;;;;;;;17.60;13.10;;;16.10;95.60;;;;;;4954809;28;20051;-55
2021/08/13 01:55:19;;;;;;;15.55;11.13;;;16.10;95.60;;;;;;4941771;28;20051;-55
2021/08/13 01:57:45;;;;;;;12.60;8.75;;;16.10;95.70;;;;;;4968358;28;20064;-51
2021/08/13 02:00:14;;;;;;;10.35;7.70;;;16.10;95.70;;;;;;4920698;28;20059;-52
2021/08/13 02:02:41;;;;;;;8.05;5.35;;;16.10;95.60;;;;;;4964375;28;20082;-49
2021/08/13 02:05:08;;;;;;;9.38;6.63;;;16.10;95.50;;;;;;4970637;28;20173;-53
2021/08/13 02:07:37;;;;;;;10.63;7.72;;;16.00;95.40;;;;;;4950149;28;20038;-51
2021/08/13 02:10:05;;;;;;;8.05;6.03;;;16.00;95.50;;;;;;4977957;28;20038;-53
2021/08/13 02:12:31;;;;;;;9.27;6.03;;;15.90;95.50;;;;;;4962989;28;20156;-51
2021/08/13 02:14:57;;;;;;;6.20;4.95;;;15.90;95.60;;;;;;4959923;28;20047;-53
2021/08/13 02:17:28;;;;;;;6.85;5.10;;;15.90;95.60;;;;;;4962725;28;20043;-50
2021/08/13 02:20:01;;;;;;;10.32;6.95;;;15.90;95.70;;;;;;4972876;28;20054;-52
2021/08/13 02:22:27;;;;;;;15.82;12.18;;;15.80;95.70;;;;;;4972225;28;20650;-52
2021/08/13 02:24:52;;;;;;;22.00;16.10;;;15.90;95.80;;;;;;4974444;28;20050;-49
2021/08/13 02:27:18;;;;;;;22.73;16.05;;;15.90;96.00;;;;;;4975205;28;20050;-49
2021/08/13 02:29:44;;;;;;;27.35;17.35;;;16.00;96.10;;;;;;4975170;28;20050;-52
2021/08/13 02:32:10;;;;;;;24.15;17.50;;;16.00;96.10;;;;;;4973801;28;20034;-51
2021/08/13 02:34:37;;;;;;;21.77;16.38;;;16.10;96.10;;;;;;4975548;28;20045;-49
2021/08/13 02:37:28;;;;;;;27.25;17.20;;;16.10;96.10;;;;;;4955236;28;20045;-54
2021/08/13 02:40:01;;;;;;;24.48;16.67;;;16.10;96.20;;;;;;4944163;28;20554;-55
2021/08/13 02:42:33;;;;;;;26.63;18.40;;;16.10;96.10;;;;;;4971140;28;20056;-56
2021/08/13 02:45:02;;;;;;;25.80;18.40;;;16.20;96.20;;;;;;4973263;28;20045;-55
2021/08/13 02:47:29;;;;;;;25.98;19.20;;;16.20;96.20;;;;;;4974478;28;20047;-54
2021/08/13 02:49:59;;;;;;;26.42;19.90;;;16.10;96.30;;;;;;4964613;28;20047;-56
2021/08/13 02:52:29;;;;;;;27.52;20.98;;;16.20;96.30;;;;;;4971870;28;20063;-55
2021/08/13 02:55:03;;;;;;;27.67;20.85;;;16.10;96.30;;;;;;4974293;28;20049;-55
2021/08/13 02:57:34;;;;;;;27.65;20.13;;;16.20;96.40;;;;;;4969173;28;20138;-55
2021/08/13 03:00:07;;;;;;;26.92;20.08;;;16.20;96.40;;;;;;4940324;28;20142;-55
2021/08/13 03:02:34;;;;;;;24.00;19.23;;;16.20;96.30;;;;;;4969062;28;20509;-53
2021/08/13 03:05:01;;;;;;;27.73;20.52;;;16.20;96.30;;;;;;4932041;28;20047;-55
2021/08/13 03:07:28;;;;;;;27.67;18.70;;;16.20;96.20;;;;;;4974263;28;20408;-53
2021/08/13 03:09:54;;;;;;;24.58;19.08;;;16.20;96.30;;;;;;4969958;28;20051;-50
2021/08/13 03:12:21;;;;;;;27.83;20.20;;;16.20;96.30;;;;;;4974330;28;20146;-54
2021/08/13 03:14:49;;;;;;;24.98;19.20;;;16.20;96.40;;;;;;4974657;28;20046;-50
2021/08/13 03:17:15;;;;;;;25.52;19.95;;;16.20;96.40;;;;;;4979637;28;20097;-52
2021/08/13 03:19:41;;;;;;;24.15;17.00;;;16.20;96.40;;;;;;4961689;28;20035;-52
2021/08/13 03:22:08;;;;;;;23.45;17.02;;;16.20;96.40;;;;;;4974127;28;20046;-55
2021/08/13 03:24:36;;;;;;;26.60;17.60;;;16.10;96.40;;;;;;4973207;28;20098;-55
2021/08/13 03:27:03;;;;;;;24.73;17.00;;;16.10;96.30;;;;;;4972661;28;20109;-55
2021/08/13 03:29:29;;;;;;;20.92;16.02;;;16.10;96.40;;;;;;4972476;28;20042;-55
2021/08/13 03:31:59;;;;;;;21.60;13.73;;;16.00;96.40;;;;;;4954321;28;20549;-52
2021/08/13 03:34:25;;;;;;;17.15;13.43;;;16.00;96.50;;;;;;4970406;28;20499;-54
2021/08/13 03:36:52;;;;;;;18.75;13.85;;;16.00;96.50;;;;;;4967000;28;20054;-53
2021/08/13 03:39:18;;;;;;;21.30;15.13;;;16.00;96.80;;;;;;4954103;28;20463;-56
2021/08/13 03:41:44;;;;;;;22.52;15.80;;;16.00;96.60;;;;;;4973210;28;20051;-55
2021/08/13 03:44:11;;;;;;;21.92;15.25;;;16.00;96.60;;;;;;4958730;28;20039;-55
2021/08/13 03:46:37;;;;;;;20.33;14.65;;;15.90;96.60;;;;;;4984993;28;20055;-55
2021/08/13 03:49:03;;;;;;;18.02;13.93;;;15.90;96.60;;;;;;4972848;28;20042;-54
2021/08/13 03:51:29;;;;;;;18.83;14.43;;;15.90;96.60;;;;;;4968160;28;20050;-51
2021/08/13 03:53:54;;;;;;;21.70;15.80;;;15.90;96.50;;;;;;4954603;28;20480;-52
2021/08/13 03:56:20;;;;;;;15.82;13.10;;;15.90;96.50;;;;;;4958652;28;20074;-51
2021/08/13 03:58:46;;;;;;;18.15;13.98;;;15.90;96.50;;;;;;4962032;28;20502;-53
2021/08/13 04:01:11;;;;;;;14.50;11.90;;;15.90;96.40;;;;;;4972686;28;20129;-53
2021/08/13 04:03:37;;;;;;;17.58;13.18;;;15.80;96.30;;;;;;4967668;28;20038;-49
2021/08/13 04:06:03;;;;;;;18.17;12.90;;;15.80;96.30;;;;;;4969731;28;20043;-55
2021/08/13 04:08:29;;;;;;;18.30;12.95;;;15.80;96.20;;;;;;4973471;28;20119;-55
2021/08/13 04:10:54;;;;;;;17.38;12.25;;;15.70;96.20;;;;;;4972666;28;20122;-55
2021/08/13 04:13:20;;;;;;;18.33;13.63;;;15.70;96.20;;;;;;4963948;28;20474;-54
2021/08/13 04:15:46;;;;;;;19.15;14.88;;;15.70;96.30;;;;;;4963816;28;20038;-54
2021/08/13 04:18:14;;;;;;;20.40;15.02;;;15.60;96.30;;;;;;4967418;28;20050;-51
2021/08/13 04:20:40;;;;;;;20.42;15.00;;;15.70;96.30;;;;;;4950393;28;20043;-51
2021/08/13 04:23:05;;;;;;;24.13;16.92;;;15.60;96.30;;;;;;4950199;28;20561;-51
2021/08/13 04:25:31;;;;;;;22.48;17.30;;;15.70;96.40;;;;;;4960014;28;20116;-50
2021/08/13 04:27:58;;;;;;;22.75;17.73;;;15.70;96.40;;;;;;4942103;28;20041;-54
2021/08/13 04:30:27;;;;;;;25.63;18.05;;;15.70;96.40;;;;;;4963659;28;20043;-49
2021/08/13 04:32:54;;;;;;;24.00;16.90;;;15.70;96.40;;;;;;4940796;28;20046;-52
2021/08/13 04:35:20;;;;;;;25.50;17.13;;;15.70;96.40;;;;;;4975461;28;20088;-50
2021/08/13 04:37:45;;;;;;;19.10;14.80;;;15.70;96.40;;;;;;4965074;28;20047;-51
2021/08/13 04:40:11;;;;;;;22.63;17.30;;;15.70;96.40;;;;;;4961482;28;20475;-52
2021/08/13 04:42:40;;;;;;;22.05;16.90;;;15.70;96.30;;;;;;4964682;28;20235;-51
2021/08/13 04:45:06;;;;;;;12.32;9.38;;;15.70;96.30;;;;;;4980925;28;20049;-50
2021/08/13 04:47:31;;;;;;;16.50;13.18;;;15.70;96.30;;;;;;4984309;28;20074;-51
2021/08/13 04:49:57;;;;;;;26.00;17.17;;;15.70;96.30;;;;;;4972834;28;20043;-52
2021/08/13 04:52:23;;;;;;;25.58;18.23;;;15.70;96.30;;;;;;4955196;28;20045;-55
2021/08/13 04:54:51;;;;;;;24.60;17.30;;;15.70;96.40;;;;;;4966047;28;20036;-55
2021/08/13 04:57:17;;;;;;;26.23;19.20;;;15.70;96.40;;;;;;4951549;28;20529;-54
2021/08/13 04:59:43;;;;;;;26.10;19.52;;;15.80;96.50;;;;;;4972203;28;20043;-55
2021/08/13 05:02:13;;;;;;;26.13;19.25;;;15.80;96.50;;;;;;4972338;28;20070;-55
2021/08/13 05:04:38;;;;;;;26.73;19.58;;;15.80;96.50;;;;;;4967846;28;20424;-55
2021/08/13 05:07:05;;;;;;;26.60;19.25;;;15.80;96.50;;;;;;4972930;28;20047;-56
2021/08/13 05:09:37;;;;;;;29.77;20.65;;;15.90;96.60;;;;;;4954855;28;20596;-53
2021/08/13 05:12:03;;;;;;;31.27;20.48;;;15.90;96.60;;;;;;4962638;28;20122;-55
2021/08/13 05:14:36;;;;;;;30.05;21.38;;;16.00;96.60;;;;;;4940039;28;20062;-55
2021/08/13 05:17:01;;;;;;;28.85;19.27;;;16.00;96.50;;;;;;4958222;28;20039;-55
2021/08/13 05:19:29;;;;;;;29.50;20.85;;;16.00;96.50;;;;;;4972954;28;20118;-52
2021/08/13 05:21:55;;;;;;;29.55;20.58;;;16.10;96.50;;;;;;4963875;28;20066;-55
2021/08/13 05:24:21;;;;;;;29.45;19.98;;;16.10;96.50;;;;;;4947108;28;20408;-53
2021/08/13 05:26:47;;;;;;;27.98;20.15;;;16.20;96.50;;;;;;4967657;28;20039;-54
2021/08/13 05:29:13;;;;;;;27.30;20.08;;;16.20;96.40;;;;;;4957125;28;20063;-55
2021/08/13 05:31:47;;;;;;;26.10;20.13;;;16.30;96.40;;;;;;4939674;28;20051;-56
2021/08/13 05:34:14;;;;;;;26.77;19.70;;;16.30;96.30;;;;;;4939194;29;20090;-54
2021/08/13 05:36:44;;;;;;;27.30;21.23;;;16.40;96.40;;;;;;4941925;28;20043;-54
2021/08/13 05:39:09;;;;;;;30.85;21.25;;;16.40;96.40;;;;;;4951088;29;20047;-52
2021/08/13 05:41:35;;;;;;;28.90;20.42;;;16.40;96.30;;;;;;4970211;28;20604;-52
2021/08/13 05:44:02;;;;;;;36.33;21.90;;;16.50;96.40;;;;;;4979211;28;20082;-52
2021/08/13 05:46:30;;;;;;;30.63;21.45;;;16.50;96.30;;;;;;4968848;28;20054;-50
2021/08/13 05:48:58;;;;;;;29.10;22.10;;;16.60;96.40;;;;;;4975349;28;20039;-52
2021/08/13 05:51:23;;;;;;;33.13;22.23;;;16.60;96.30;;;;;;4976049;28;20065;-49
2021/08/13 05:53:50;;;;;;;32.30;23.05;;;16.70;96.40;;;;;;4971301;28;20487;-48
2021/08/13 05:56:16;;;;;;;36.22;23.48;;;16.70;96.40;;;;;;4957193;28;20041;-55
2021/08/13 05:58:42;;;;;;;32.75;23.08;;;16.80;96.30;;;;;;4974553;28;20503;-49
2021/08/13 06:01:07;;;;;;;30.45;22.30;;;16.90;96.30;;;;;;4942738;28;20050;-49
2021/08/13 06:03:33;;;;;;;33.35;23.02;;;17.10;96.30;;;;;;4976215;28;20093;-50
2021/08/13 06:05:59;;;;;;;32.05;22.55;;;17.20;96.20;;;;;;4939027;28;20389;-51
2021/08/13 06:08:25;;;;;;;30.90;22.20;;;17.30;96.10;;;;;;4968835;28;20060;-52
2021/08/13 06:10:52;;;;;;;32.47;22.15;;;17.40;96.00;;;;;;4962590;28;20415;-54
2021/08/13 06:13:18;;;;;;;32.35;22.00;;;17.50;95.90;;;;;;4969494;28;20043;-52
2021/08/13 06:15:45;;;;;;;35.25;24.20;;;17.60;95.80;;;;;;4960253;28;20174;-49
2021/08/13 06:18:11;;;;;;;32.30;23.10;;;17.70;95.80;;;;;;4961090;28;20047;-52
2021/08/13 06:20:37;;;;;;;33.47;23.30;;;17.70;95.70;;;;;;4944523;28;20507;-51
2021/08/13 06:23:03;;;;;;;38.10;23.67;;;17.70;95.60;;;;;;4963515;28;20097;-53
2021/08/13 06:25:29;;;;;;;38.35;24.33;;;17.70;95.50;;;;;;4960724;28;20510;-53
2021/08/13 06:27:54;;;;;;;31.88;22.92;;;17.80;95.50;;;;;;4963710;28;20117;-52
2021/08/13 06:30:22;;;;;;;32.55;23.08;;;17.80;95.50;;;;;;4960626;28;20044;-52
2021/08/13 06:32:49;;;;;;;33.22;23.25;;;17.90;95.50;;;;;;4963796;28;20045;-52
2021/08/13 06:35:16;;;;;;;32.97;22.25;;;17.90;95.50;;;;;;4961437;28;20114;-50
2021/08/13 06:37:45;;;;;;;31.48;21.90;;;17.90;95.40;;;;;;4941864;28;20051;-56
2021/08/13 06:40:13;;;;;;;31.42;22.45;;;18.00;95.40;;;;;;4925107;29;20055;-55
2021/08/13 06:42:41;;;;;;;30.77;21.00;;;18.10;95.40;;;;;;4943189;28;20105;-55
2021/08/13 06:45:09;;;;;;;29.58;20.27;;;18.10;95.40;;;;;;4957158;28;20057;-56
2021/08/13 06:47:35;;;;;;;30.33;21.02;;;18.20;95.30;;;;;;4978959;28;20048;-56
2021/08/13 06:50:01;;;;;;;30.35;19.75;;;18.20;95.20;;;;;;4983311;28;20126;-55
2021/08/13 06:52:27;;;;;;;28.23;19.85;;;18.20;95.10;;;;;;4974176;28;20073;-55
2021/08/13 06:54:53;;;;;;;26.25;19.30;;;18.30;94.90;;;;;;4975480;28;20051;-55
2021/08/13 06:57:18;;;;;;;28.88;19.27;;;18.30;94.80;;;;;;4947115;28;20043;-52
2021/08/13 06:59:44;;;;;;;27.25;19.10;;;18.40;94.70;;;;;;4967515;28;20047;-52
2021/08/13 07:02:09;;;;;;;25.42;18.70;;;18.40;94.60;;;;;;4965453;28;20035;-52
2021/08/13 07:04:35;;;;;;;24.65;17.63;;;18.40;94.50;;;;;;4971627;28;20069;-55
2021/08/13 07:07:01;;;;;;;24.83;18.25;;;18.50;94.40;;;;;;4970953;28;20130;-52
2021/08/13 07:09:28;;;;;;;29.10;19.60;;;18.50;94.40;;;;;;4983152;28;20415;-51
2021/08/13 07:11:54;;;;;;;23.23;17.58;;;18.60;94.30;;;;;;4949212;29;20040;-52
2021/08/13 07:14:19;;;;;;;26.98;18.23;;;18.70;94.30;;;;;;4964103;28;20165;-54
2021/08/13 07:16:48;;;;;;;26.38;18.52;;;18.70;94.20;;;;;;4962520;28;20049;-49
2021/08/13 07:19:13;;;;;;;28.75;18.08;;;18.70;94.10;;;;;;4948190;28;20075;-52
2021/08/13 07:21:39;;;;;;;22.75;16.35;;;18.70;94.00;;;;;;4970211;28;20066;-52
2021/08/13 07:24:05;;;;;;;24.38;17.13;;;18.80;94.00;;;;;;4965071;28;20118;-52
2021/08/13 07:26:31;;;;;;;26.33;16.75;;;18.80;93.90;;;;;;4962322;28;20116;-50
2021/08/13 07:28:57;;;;;;;23.08;17.15;;;18.90;93.80;;;;;;4959880;28;20040;-58
2021/08/13 07:31:23;;;;;;;25.17;15.95;;;18.90;93.60;;;;;;4958931;28;20050;-50
2021/08/13 07:33:49;;;;;;;26.73;16.40;;;18.90;93.50;;;;;;4960383;28;20043;-50
2021/08/13 07:36:14;;;;;;;23.42;15.60;;;19.00;93.50;;;;;;4980046;28;20044;-50
2021/08/13 07:38:40;;;;;;;22.48;15.00;;;19.00;93.50;;;;;;4970325;28;20130;-53
2021/08/13 07:41:07;;;;;;;20.08;15.00;;;19.00;93.50;;;;;;4970017;28;20488;-52
2021/08/13 07:43:33;;;;;;;24.20;15.90;;;19.10;93.40;;;;;;4956533;28;20474;-52
2021/08/13 07:46:00;;;;;;;22.60;15.32;;;19.10;93.40;;;;;;4973244;28;20039;-56
2021/08/13 07:48:27;;;;;;;23.25;16.08;;;19.10;93.40;;;;;;4945351;28;20058;-55
2021/08/13 07:50:54;;;;;;;19.13;14.48;;;19.10;93.40;;;;;;4970356;28;20070;-54
2021/08/13 07:53:20;;;;;;;23.17;15.52;;;19.20;93.20;;;;;;4973219;28;20039;-55
2021/08/13 07:55:48;;;;;;;19.23;14.30;;;19.20;93.20;;;;;;4987041;28;20097;-54
2021/08/13 07:58:14;;;;;;;19.38;14.52;;;19.30;93.20;;;;;;4974728;28;20047;-54
2021/08/13 08:00:40;;;;;;;17.65;14.30;;;19.30;92.90;;;;;;4931206;28;20039;-56
2021/08/13 08:03:08;;;;;;;18.75;13.93;;;19.30;92.90;;;;;;4962298;28;20046;-56
2021/08/13 08:05:33;;;;;;;20.85;13.95;;;19.30;93.00;;;;;;4982482;28;20042;-55
2021/08/13 08:07:59;;;;;;;19.83;13.45;;;19.30;93.00;;;;;;4977210;28;20035;-56
2021/08/13 08:10:27;;;;;;;18.95;13.88;;;19.40;93.20;;;;;;4983321;28;20043;-55
2021/08/13 08:12:52;;;;;;;19.20;13.02;;;19.40;92.90;;;;;;4953441;28;20554;-55
2021/08/13 08:15:18;;;;;;;18.13;12.18;;;19.40;92.80;;;;;;4941097;28;20059;-56
2021/08/13 08:17:44;;;;;;;18.52;12.63;;;19.50;92.80;;;;;;4963949;28;20066;-55
2021/08/13 08:20:10;;;;;;;16.98;12.18;;;19.50;92.80;;;;;;4966633;28;20035;-56
2021/08/13 08:22:36;;;;;;;17.02;11.27;;;19.50;92.70;;;;;;4965603;28;20039;-56
2021/08/13 08:25:03;;;;;;;17.77;11.90;;;19.60;92.60;;;;;;4959398;28;20142;-56
2021/08/13 08:27:30;;;;;;;17.38;10.73;;;19.60;92.50;;;;;;4955478;28;20039;-56
2021/08/13 08:29:56;;;;;;;14.35;9.88;;;19.60;92.10;;;;;;4932393;28;20067;-56
2021/08/13 08:32:21;;;;;;;14.25;10.20;;;19.70;92.10;;;;;;4953207;28;20456;-56
2021/08/13 08:34:49;;;;;;;12.88;10.18;;;19.80;91.90;;;;;;4958035;28;20499;-55
2021/08/13 08:37:17;;;;;;;12.52;9.68;;;19.80;91.80;;;;;;4942099;28;20520;-56
2021/08/13 08:39:45;;;;;;;16.40;10.75;;;19.80;91.50;;;;;;4967380;28;20117;-52
2021/08/13 08:42:16;;;;;;;17.83;11.15;;;19.70;91.50;;;;;;4968540;28;20042;-52
2021/08/13 08:44:45;;;;;;;14.57;11.38;;;19.70;91.60;;;;;;4982749;28;20066;-51
2021/08/13 08:47:12;;;;;;;14.43;10.68;;;19.90;91.60;;;;;;4975910;28;20403;-49
2021/08/13 08:49:40;;;;;;;15.35;11.48;;;20.00;91.60;;;;;;4965486;28;20719;-52
2021/08/13 08:52:07;;;;;;;16.40;10.77;;;20.20;91.60;;;;;;4966409;28;20211;-49
2021/08/13 08:54:35;;;;;;;16.92;11.13;;;20.40;91.60;;;;;;4961203;28;20038;-51
2021/08/13 08:57:02;;;;;;;16.00;10.55;;;20.40;91.10;;;;;;4980070;28;20056;-50
2021/08/13 08:59:28;;;;;;;12.82;9.90;;;20.40;90.90;;;;;;4954785;28;20089;-52
2021/08/13 09:01:56;;;;;;;12.43;9.98;;;20.40;90.80;;;;;;4971630;28;20070;-54
2021/08/13 09:04:22;;;;;;;16.23;10.20;;;20.30;90.70;;;;;;4963007;28;20042;-51
2021/08/13 09:06:48;;;;;;;15.60;9.52;;;20.30;90.80;;;;;;4972328;28;20415;-51
2021/08/13 09:09:13;;;;;;;15.45;10.60;;;20.20;90.80;;;;;;4981944;28;20046;-49
2021/08/13 09:11:41;;;;;;;14.02;9.95;;;20.20;90.90;;;;;;4964573;28;20059;-52
2021/08/13 09:14:10;;;;;;;15.57;9.48;;;20.20;90.90;;;;;;4959320;28;20047;-52
2021/08/13 09:16:36;;;;;;;13.55;9.15;;;20.10;91.00;;;;;;4963886;28;20070;-53
2021/08/13 09:19:05;;;;;;;13.07;9.32;;;20.00;91.00;;;;;;4967103;28;20518;-52
2021/08/13 09:21:33;;;;;;;12.98;9.13;;;20.10;91.00;;;;;;4961820;28;20039;-52
2021/08/13 09:24:00;;;;;;;12.10;9.32;;;20.20;90.80;;;;;;4955411;28;20527;-54
2021/08/13 09:26:27;;;;;;;13.32;8.73;;;20.30;90.60;;;;;;4972589;28;20039;-50
2021/08/13 09:28:56;;;;;;;11.23;8.52;;;20.40;90.50;;;;;;4972965;28;20046;-53
2021/08/13 09:31:25;;;;;;;13.70;8.45;;;20.60;90.40;;;;;;4959402;28;20125;-50
2021/08/13 09:33:53;;;;;;;13.30;8.70;;;20.70;90.00;;;;;;4973028;28;20054;-51
2021/08/13 09:36:25;;;;;;;9.85;7.43;;;20.70;89.50;;;;;;4970259;28;20038;-53
2021/08/13 09:39:02;;;;;;;11.77;7.10;;;20.70;89.70;;;;;;4955483;28;20039;-48
2021/08/13 09:41:27;;;;;;;11.68;7.50;;;20.70;89.60;;;;;;4956752;28;20122;-52
2021/08/13 09:44:01;;;;;;;11.15;7.35;;;20.70;90.00;;;;;;4962566;28;20614;-51
2021/08/13 09:46:29;;;;;;;11.52;7.03;;;20.70;89.60;;;;;;4958763;28;20039;-54
2021/08/13 09:49:14;;;;;;;13.00;7.53;;;20.70;90.00;;;;;;4973384;28;20039;-54
2021/08/13 09:51:41;;;;;;;12.48;7.13;;;20.70;90.10;;;;;;4971331;28;20043;-50
2021/08/13 09:54:08;;;;;;;13.30;7.80;;;20.80;90.10;;;;;;4971190;28;20097;-55
2021/08/13 09:56:37;;;;;;;11.23;7.07;;;20.80;90.10;;;;;;4972109;28;20054;-55
2021/08/13 09:59:18;;;;;;;10.90;7.20;;;20.70;89.50;;;;;;4936524;29;20047;-55
2021/08/13 10:01:53;;;;;;;13.68;7.40;;;20.60;90.20;;;;;;4968407;28;20443;-55
2021/08/13 10:04:32;;;;;;;13.43;7.13;;;20.60;89.80;;;;;;4936118;29;20533;-56
2021/08/13 10:06:58;;;;;;;12.02;7.03;;;20.50;90.00;;;;;;4939794;28;20046;-55
2021/08/13 10:09:26;;;;;;;11.77;7.40;;;20.50;90.00;;;;;;4955604;28;20507;-50
2021/08/13 10:12:06;;;;;;;11.07;7.03;;;20.40;89.70;;;;;;4972302;28;20466;-52
2021/08/13 10:14:44;;;;;;;11.60;6.18;;;20.40;89.90;;;;;;4961222;28;20043;-52
2021/08/13 10:17:13;;;;;;;10.85;6.60;;;20.40;90.10;;;;;;4958999;28;20503;-53
2021/08/13 10:19:40;;;;;;;18.40;6.75;;;20.40;89.90;;;;;;4971483;28;20498;-52
2021/08/13 10:22:07;;;;;;;14.55;7.38;;;20.40;89.50;;;;;;4959779;28;20102;-49
2021/08/13 10:24:34;;;;;;;12.63;6.53;;;20.50;89.70;;;;;;4959891;28;20086;-52
2021/08/13 10:27:03;;;;;;;12.13;6.43;;;20.60;89.00;;;;;;4976722;28;20043;-49
2021/08/13 10:29:29;;;;;;;11.15;5.28;;;20.60;88.70;;;;;;4976970;28;20043;-51
2021/08/13 10:31:56;;;;;;;9.70;5.80;;;20.60;89.50;;;;;;4975695;28;20039;-49
2021/08/13 10:34:22;;;;;;;10.98;5.80;;;20.60;88.00;;;;;;4954877;28;20051;-54
2021/08/13 10:36:50;;;;;;;10.93;5.35;;;20.70;87.20;;;;;;4964312;28;20085;-52
2021/08/13 10:39:21;;;;;;;9.32;5.80;;;20.70;85.90;;;;;;4975673;28;20050;-50
2021/08/13 10:41:54;;;;;;;9.80;5.50;;;20.80;85.00;;;;;;4977388;28;20042;-56
2021/08/13 10:44:24;;;;;;;10.63;5.65;;;20.80;85.20;;;;;;4959034;28;20812;-56
2021/08/13 10:46:52;;;;;;;10.27;5.97;;;20.90;85.30;;;;;;4958247;28;20039;-53
2021/08/13 10:49:20;;;;;;;10.50;5.50;;;21.00;84.80;;;;;;4974871;28;20051;-54
2021/08/13 10:51:59;;;;;;;12.30;5.47;;;21.20;83.30;;;;;;4961832;28;20066;-52
2021/08/13 10:54:45;;;;;;;9.60;5.15;;;21.30;81.90;;;;;;4958950;28;20106;-53
2021/08/13 10:57:12;;;;;;;9.55;4.88;;;21.30;81.20;;;;;;4963418;28;20043;-52
2021/08/13 10:59:41;;;;;;;9.00;4.90;;;21.20;81.70;;;;;;4958516;28;20038;-50
2021/08/13 11:02:17;;;;;;;10.10;4.95;;;21.20;79.50;;;;;;4964805;28;20451;-55
2021/08/13 11:04:45;;;;;;;9.93;5.00;;;21.30;80.60;;;;;;4974818;28;20507;-53
2021/08/13 11:07:12;;;;;;;10.35;5.05;;;21.30;78.30;;;;;;4956949;28;20412;-50
2021/08/13 11:09:39;;;;;;;9.85;4.97;;;21.30;77.80;;;;;;4969408;28;20045;-52
2021/08/13 11:12:15;;;;;;;9.95;5.05;;;21.20;78.40;;;;;;4968682;28;20039;-53
2021/08/13 11:14:54;;;;;;;9.82;4.90;;;21.20;78.10;;;;;;4956016;28;20086;-52
2021/08/13 11:17:42;;;;;;;10.55;5.47;;;21.10;78.50;;;;;;4959483;28;20131;-52
2021/08/13 11:20:15;;;;;;;7.43;4.85;;;21.20;79.20;;;;;;4967671;28;20042;-52
2021/08/13 11:22:42;;;;;;;9.40;5.00;;;21.30;77.90;;;;;;4974615;28;20114;-52
2021/08/13 11:25:13;;;;;;;9.02;4.50;;;21.40;78.70;;;;;;4975688;28;20074;-50
2021/08/13 11:27:39;;;;;;;9.70;5.40;;;21.40;79.30;;;;;;4974733;28;20083;-51
2021/08/13 11:30:32;;;;;;;10.40;5.18;;;21.40;78.80;;;;;;4955561;28;20285;-53
2021/08/13 11:33:25;;;;;;;13.15;5.30;;;21.40;77.70;;;;;;4927762;28;20045;-50
2021/08/13 11:35:52;;;;;;;11.25;4.50;;;21.40;77.40;;;;;;4961309;28;20630;-51
2021/08/13 11:38:42;;;;;;;7.15;4.43;;;21.30;77.00;;;;;;4967618;28;20114;-52
2021/08/13 11:41:20;;;;;;;12.40;4.45;;;21.30;76.90;;;;;;4971061;28;20054;-51
2021/08/13 11:43:51;;;;;;;8.70;4.22;;;21.30;76.70;;;;;;4976477;28;20365;-49
2021/08/13 11:46:30;;;;;;;10.38;4.35;;;21.30;77.10;;;;;;4973674;28;20038;-49
2021/08/13 11:48:58;;;;;;;7.55;3.58;;;21.30;76.60;;;;;;4965722;28;20047;-52
2021/08/13 11:51:25;;;;;;;10.10;4.00;;;21.30;76.20;;;;;;4970916;28;20047;-52
2021/08/13 11:53:51;;;;;;;10.38;4.00;;;21.30;76.00;;;;;;4965635;28;20066;-52
2021/08/13 11:56:31;;;;;;;8.60;4.13;;;21.30;76.70;;;;;;4969104;28;20073;-53
2021/08/13 11:59:07;;;;;;;9.23;3.88;;;21.30;77.00;;;;;;4965746;28;20050;-53
2021/08/13 12:01:53;;;;;;;12.98;4.45;;;21.40;77.40;;;;;;4970565;28;20039;-53
2021/08/13 12:04:23;;;;;;;10.60;3.95;;;21.40;77.90;;;;;;4958284;28;20054;-52
2021/08/13 12:07:06;;;;;;;11.35;3.90;;;21.50;78.70;;;;;;4968013;28;20051;-51
2021/08/13 12:09:39;;;;;;;28.45;4.35;;;21.60;78.00;;;;;;4966462;28;20043;-52
2021/08/13 12:12:07;;;;;;;11.73;3.90;;;21.60;78.40;;;;;;4973486;28;20047;-53
2021/08/13 12:14:34;;;;;;;12.88;3.92;;;21.60;78.00;;;;;;4974631;28;20137;-55
2021/08/13 12:17:01;;;;;;;14.13;4.10;;;21.60;77.50;;;;;;4974316;28;20051;-51
2021/08/13 12:19:27;;;;;;;8.02;3.40;;;21.50;76.00;;;;;;4972388;28;20384;-52
2021/08/13 12:21:59;;;;;;;10.02;3.80;;;21.50;75.80;;;;;;4973132;28;20043;-52
2021/08/13 12:24:32;;;;;;;;;;;21.40;76.50;;;;;;4974099;28;20105;-52
2021/08/13 12:27:05;;;;;;;8.18;3.75;;;21.40;77.10;;;;;;4972319;28;19932;-52
2021/08/13 12:29:31;;;;;;;8.80;3.58;;;21.40;76.50;;;;;;4973790;28;20050;-52
2021/08/13 12:32:00;;;;;;;10.35;4.32;;;21.30;77.30;;;;;;4963132;28;20046;-54
2021/08/13 12:34:29;;;;;;;8.52;3.28;;;21.30;78.00;;;;;;4957821;28;20491;-51
2021/08/13 12:37:12;;;;;;;12.95;3.70;;;21.30;78.40;;;;;;4957639;28;20483;-56
2021/08/13 12:39:45;;;;;;;8.57;3.35;;;21.30;78.20;;;;;;4973699;28;20057;-56